NJ59 weather

Ekdahl Airport
Freehold, New Jersey, United States

Public forecast

Using degrees Fahrenheit for public forecast. Weather courtesy of forecast.io.

Closest aviation weather report (METAR) to Ekdahl Airport

Closest report is Monmouth Executive Airport, 7.1 nm (13.1 km) E. Retrieved 2020/07/09 16:56 UTC (14 minutes ago):

KBLM 091656Z AUTO 14009KT 10SM FEW023 29/23 A3002 RMK AO2 SLP165 T02890233

Closest aviation forecast (TAF) to Ekdahl Airport

Forecast is more than 6 hours old.

Closest forecast is Mc Guire Air Force Base, 17.5 nm (32.5 km) SW. Retrieved 2020/07/09 10:08 UTC (7 hours ago):

TAF KWRI 091000Z 0910/1016 VRB04KT 3200 BR BKN003 QNH2998INS TEMPO 0910/0912 0800 FG OVC001 BECMG 0912/0913 12008KT 9999 NSW FEW050 SCT250 QNH2997INS BECMG 0920/0921 13007KT 9999 SCT050 BKN250 QNH2996INS BECMG 1004/1005 11005KT 9999 OVC015 QNH2996INS BECMG 1006/1008 09007KT 9999 VCSH OVC009 QNH2999INS BECMG 1009/1010 08010G15KT 6000 SHRA OVC007 QNH2999INS TEMPO 1012/1016 09012G20KT 3200 +RA BR TX32/0919Z TN23/0910Z